Signet Legend — WDF8130 — position and weather

sailwx.info

Track history (hours):
 
Tides and Currents Weather Stations Pressure Air Temp Water Temp Dewpoint Dewpoint Depression Visibility Wind Speed Wind Dir Waves Ship Positions

Signet Legend

Owner: Signet Maritime Corporation, Pascagoula, MS. More information available from US FCC via Universal Licensing System and Coast Guard Vessel Documentation Center.

Last reported at 2017-Oct-21 02:28 UTC. Time now 2017-Nov-20 11:59 UTC.
Position N 30°23' W 086°55'.
Warning: this ship's position is 30 days out of date.

Length 15 m; draft 2.4 m.

Type: Towing. MMSI: 367491710.

Date/timePositionNaut miles runAvg speedWind from/ knotsBaromVisibWave heightAir tempDewpointWater temp
2017-Oct-21 02:28N 30°23' W 086°55'2 5.2
2017-Oct-21 02:00N 30°24' W 086°52'2 4.6
2017-Oct-21 01:30N 30°24' W 086°50'2 5.0
2017-Oct-21 01:00N 30°24' W 086°47'5 4.6
2017-Oct-20 23:59N 30°24' W 086°41'2 4.5
2017-Oct-20 23:30N 30°24' W 086°39'3 5.2
2017-Oct-20 23:00N 30°24' W 086°36'3 5.4
2017-Oct-20 22:30N 30°25' W 086°33'3 5.6
2017-Oct-20 22:00N 30°26' W 086°30'3 5.4
2017-Oct-20 21:30N 30°26' W 086°27'3 5.5
2017-Oct-20 21:00N 30°26' W 086°23'3 5.7
2017-Oct-20 20:30N 30°26' W 086°20'3 5.8
2017-Oct-20 20:00N 30°26' W 086°17'3 5.6
2017-Oct-20 19:30N 30°26' W 086°14'6 0.2
2017-Oct-19 16:43N 30°23' W 086°08'2 4.3
2017-Oct-19 16:15N 30°24' W 086°10'3 5.8
2017-Oct-19 15:47N 30°25' W 086°13'2 5.7
2017-Oct-19 15:30N 30°26' W 086°14'3 6.1
2017-Oct-19 15:00N 30°26' W 086°18'3 6.2
2017-Oct-19 14:30N 30°26' W 086°21'3 6.2
2017-Oct-19 14:00N 30°26' W 086°25'3 5.8
2017-Oct-19 13:30N 30°26' W 086°28'3 5.8
2017-Oct-19 13:00N 30°25' W 086°32'3 5.5
2017-Oct-19 12:30N 30°24' W 086°35'2 5.0
2017-Oct-19 12:00N 30°24' W 086°37'4 5.2
2017-Oct-19 11:16N 30°24' W 086°42'2 4.6
2017-Oct-19 10:49N 30°24' W 086°44'1 4.5
2017-Oct-19 10:30N 30°24' W 086°46'3 5.3
2017-Oct-19 10:00N 30°24' W 086°49'2 4.9
2017-Oct-19 09:30N 30°24' W 086°52'  
2017-Oct-15 14:33N 29°33' W 090°24'3 6.1
2017-Oct-15 14:00N 29°33' W 090°28'3 6.2
2017-Oct-15 13:30N 29°34' W 090°32'3 6.0
2017-Oct-15 13:00N 29°35' W 090°35'3 5.9
2017-Oct-15 12:30N 29°35' W 090°38'3 5.9
2017-Oct-15 12:00N 29°37' W 090°41'2 4.6
2017-Oct-15 11:30N 29°35' W 090°43'3 5.0
2017-Oct-15 11:00N 29°33' W 090°45'3 5.1
2017-Oct-15 10:30N 29°32' W 090°48'3 6.0
2017-Oct-15 10:00N 29°32' W 090°51'3 5.9
2017-Oct-15 09:30N 29°33' W 090°55'4 0.6
2017-Oct-15 02:52N 29°36' W 090°58'3 7.1
2017-Oct-15 02:30N 29°34' W 090°56'4 7.3
2017-Oct-15 02:00N 29°32' W 090°52'3 7.1
2017-Oct-15 01:30N 29°32' W 090°48'3 6.1
2017-Oct-15 01:00N 29°34' W 090°45'2 4.1
2017-Oct-15 00:30N 29°34' W 090°43'0 0.8
2017-Oct-15 00:00N 29°34' W 090°42'2 5.0
2017-Oct-14 23:30N 29°31' W 090°42'3 6.2
2017-Oct-14 23:00N 29°28' W 090°43'3 6.2
2017-Oct-14 22:30N 29°25' W 090°43'3 5.7
2017-Oct-14 21:56N 29°22' W 090°44'1 0.0
2017-Oct-14 03:14N 29°21' W 090°44'2 7.0
2017-Oct-14 03:00N 29°23' W 090°44'3 6.8
2017-Oct-14 02:30N 29°26' W 090°43'3 6.9
2017-Oct-14 02:00N 29°29' W 090°43'4 7.0
2017-Oct-14 01:28N 29°33' W 090°42'2 4.4
2017-Oct-14 01:01N 29°34' W 090°45'3 6.0
2017-Oct-14 00:30N 29°32' W 090°48'3 6.7
2017-Oct-14 00:00N 29°32' W 090°51'4 6.4
2017-Oct-13 23:27N 29°33' W 090°55'3 6.1
2017-Oct-13 22:57N 29°35' W 090°58'1 0.0
2017-Oct-12 18:40N 29°36' W 090°58'2 6.2
2017-Oct-12 18:25N 29°35' W 090°57'3 6.3
2017-Oct-12 18:00N 29°33' W 090°55'3 6.2
2017-Oct-12 17:30N 29°32' W 090°52'3 6.4
2017-Oct-12 17:00N 29°32' W 090°48'3 5.6
2017-Oct-12 16:30N 29°33' W 090°45'2 4.2
2017-Oct-12 16:00N 29°34' W 090°43'0 0.8
2017-Oct-12 15:30N 29°34' W 090°42'0 0.2
2017-Oct-12 15:00N 29°34' W 090°42'2 3.4
2017-Oct-12 14:30N 29°35' W 090°43'2 3.6
2017-Oct-12 14:00N 29°37' W 090°42'3 5.3
2017-Oct-12 13:30N 29°36' W 090°39'3 5.6
2017-Oct-12 13:00N 29°35' W 090°36'3 5.7
2017-Oct-12 12:30N 29°34' W 090°33'3 6.2
2017-Oct-12 12:00N 29°34' W 090°29'3 6.2
2017-Oct-12 11:30N 29°33' W 090°26'  
Track history (hours):
 
Tides and Currents Weather Stations Pressure Air Temp Water Temp Dewpoint Dewpoint Depression Visibility Wind Speed Wind Dir Waves Ship Positions

Signet Legend

Owner: Signet Maritime Corporation, Pascagoula, MS. More information available from US FCC via Universal Licensing System and Coast Guard Vessel Documentation Center.

Last reported at 2017-Oct-21 02:28 UTC. Time now 2017-Nov-20 11:59 UTC.
Position N 30°23' W 086°55'.
Warning: this ship's position is 30 days out of date.

Length 15 m; draft 2.4 m.

Type: Towing. MMSI: 367491710.

Date/timePositionNaut miles runAvg speedWind from/ knotsBaromVisibWave heightAir tempDewpointWater temp
2017-Oct-21 02:28N 30°23' W 086°55'2 5.2
2017-Oct-21 02:00N 30°24' W 086°52'2 4.6
2017-Oct-21 01:30N 30°24' W 086°50'2 5.0
2017-Oct-21 01:00N 30°24' W 086°47'5 4.6
2017-Oct-20 23:59N 30°24' W 086°41'2 4.5
2017-Oct-20 23:30N 30°24' W 086°39'3 5.2
2017-Oct-20 23:00N 30°24' W 086°36'3 5.4
2017-Oct-20 22:30N 30°25' W 086°33'3 5.6
2017-Oct-20 22:00N 30°26' W 086°30'3 5.4
2017-Oct-20 21:30N 30°26' W 086°27'3 5.5
2017-Oct-20 21:00N 30°26' W 086°23'3 5.7
2017-Oct-20 20:30N 30°26' W 086°20'3 5.8
2017-Oct-20 20:00N 30°26' W 086°17'3 5.6
2017-Oct-20 19:30N 30°26' W 086°14'6 0.2
2017-Oct-19 16:43N 30°23' W 086°08'2 4.3
2017-Oct-19 16:15N 30°24' W 086°10'3 5.8
2017-Oct-19 15:47N 30°25' W 086°13'2 5.7
2017-Oct-19 15:30N 30°26' W 086°14'3 6.1
2017-Oct-19 15:00N 30°26' W 086°18'3 6.2
2017-Oct-19 14:30N 30°26' W 086°21'3 6.2
2017-Oct-19 14:00N 30°26' W 086°25'3 5.8
2017-Oct-19 13:30N 30°26' W 086°28'3 5.8
2017-Oct-19 13:00N 30°25' W 086°32'3 5.5
2017-Oct-19 12:30N 30°24' W 086°35'2 5.0
2017-Oct-19 12:00N 30°24' W 086°37'4 5.2
2017-Oct-19 11:16N 30°24' W 086°42'2 4.6
2017-Oct-19 10:49N 30°24' W 086°44'1 4.5
2017-Oct-19 10:30N 30°24' W 086°46'3 5.3
2017-Oct-19 10:00N 30°24' W 086°49'2 4.9
2017-Oct-19 09:30N 30°24' W 086°52'  
2017-Oct-15 14:33N 29°33' W 090°24'3 6.1
2017-Oct-15 14:00N 29°33' W 090°28'3 6.2
2017-Oct-15 13:30N 29°34' W 090°32'3 6.0
2017-Oct-15 13:00N 29°35' W 090°35'3 5.9
2017-Oct-15 12:30N 29°35' W 090°38'3 5.9
2017-Oct-15 12:00N 29°37' W 090°41'2 4.6
2017-Oct-15 11:30N 29°35' W 090°43'3 5.0
2017-Oct-15 11:00N 29°33' W 090°45'3 5.1
2017-Oct-15 10:30N 29°32' W 090°48'3 6.0
2017-Oct-15 10:00N 29°32' W 090°51'3 5.9
2017-Oct-15 09:30N 29°33' W 090°55'4 0.6
2017-Oct-15 02:52N 29°36' W 090°58'3 7.1
2017-Oct-15 02:30N 29°34' W 090°56'4 7.3
2017-Oct-15 02:00N 29°32' W 090°52'3 7.1
2017-Oct-15 01:30N 29°32' W 090°48'3 6.1
2017-Oct-15 01:00N 29°34' W 090°45'2 4.1
2017-Oct-15 00:30N 29°34' W 090°43'0 0.8
2017-Oct-15 00:00N 29°34' W 090°42'2 5.0
2017-Oct-14 23:30N 29°31' W 090°42'3 6.2
2017-Oct-14 23:00N 29°28' W 090°43'3 6.2
2017-Oct-14 22:30N 29°25' W 090°43'3 5.7
2017-Oct-14 21:56N 29°22' W 090°44'1 0.0
2017-Oct-14 03:14N 29°21' W 090°44'2 7.0
2017-Oct-14 03:00N 29°23' W 090°44'3 6.8
2017-Oct-14 02:30N 29°26' W 090°43'3 6.9
2017-Oct-14 02:00N 29°29' W 090°43'4 7.0
2017-Oct-14 01:28N 29°33' W 090°42'2 4.4
2017-Oct-14 01:01N 29°34' W 090°45'3 6.0
2017-Oct-14 00:30N 29°32' W 090°48'3 6.7
2017-Oct-14 00:00N 29°32' W 090°51'4 6.4
2017-Oct-13 23:27N 29°33' W 090°55'3 6.1
2017-Oct-13 22:57N 29°35' W 090°58'1 0.0
2017-Oct-12 18:40N 29°36' W 090°58'2 6.2
2017-Oct-12 18:25N 29°35' W 090°57'3 6.3
2017-Oct-12 18:00N 29°33' W 090°55'3 6.2
2017-Oct-12 17:30N 29°32' W 090°52'3 6.4
2017-Oct-12 17:00N 29°32' W 090°48'3 5.6
2017-Oct-12 16:30N 29°33' W 090°45'2 4.2
2017-Oct-12 16:00N 29°34' W 090°43'0 0.8
2017-Oct-12 15:30N 29°34' W 090°42'0 0.2
2017-Oct-12 15:00N 29°34' W 090°42'2 3.4
2017-Oct-12 14:30N 29°35' W 090°43'2 3.6
2017-Oct-12 14:00N 29°37' W 090°42'3 5.3
2017-Oct-12 13:30N 29°36' W 090°39'3 5.6
2017-Oct-12 13:00N 29°35' W 090°36'3 5.7
2017-Oct-12 12:30N 29°34' W 090°33'3 6.2
2017-Oct-12 12:00N 29°34' W 090°29'3 6.2
2017-Oct-12 11:30N 29°33' W 090°26'  

Dump ship's entire track history